Time;durP1;ratioP1;P1;durP2;ratioP2;P2;SDS_P1;SDS_P2;PMS_P1;PMS_P2;Temp;Humidity;BMP_temperature;BMP_pressure;BME280_temperature;BME280_humidity;BME280_pressure;Samples;Min_cycle;Max_cycle;Signal;HPM_P1;HPM_P2
2021/12/02 00:01:14;;;;;;;0.77;0.47;;;7.50;1.00;;;;;;5061869;28;20871;-59
2021/12/02 00:03:40;;;;;;;0.57;0.53;;;7.50;1.00;;;;;;5066613;28;20438;-58
2021/12/02 00:06:12;;;;;;;0.40;0.40;;;7.60;1.00;;;;;;5064127;28;20534;-59
2021/12/02 00:08:39;;;;;;;0.87;0.50;;;7.50;1.00;;;;;;5057132;28;20417;-60
2021/12/02 00:11:05;;;;;;;1.50;0.50;;;7.50;1.00;;;;;;5058483;28;20959;-59
2021/12/02 00:13:39;;;;;;;0.40;0.40;;;7.50;1.00;;;;;;5057462;28;20453;-60
2021/12/02 00:16:17;;;;;;;1.30;0.57;;;7.60;1.00;;;;;;5059113;28;20513;-59
2021/12/02 00:21:19;;;;;;;0.87;0.50;;;7.50;1.00;;;;;;5055060;28;20540;-59
2021/12/02 00:23:58;;;;;;;0.83;0.70;;;7.60;1.00;;;;;;5057068;28;20957;-58
2021/12/02 00:26:24;;;;;;;1.77;0.50;;;7.60;1.00;;;;;;5064042;28;20476;-59
2021/12/02 00:28:56;;;;;;;1.00;0.50;;;7.70;1.00;;;;;;5060636;28;20449;-59
2021/12/02 00:31:29;;;;;;;4.73;0.67;;;7.70;1.00;;;;;;5064047;28;20267;-58
2021/12/02 00:34:02;;;;;;;1.80;0.80;;;7.80;1.00;;;;;;5056934;28;20963;-60
2021/12/02 00:36:30;;;;;;;0.80;0.80;;;7.70;1.00;;;;;;5061477;28;20435;-58
2021/12/02 00:38:57;;;;;;;2.73;0.93;;;7.70;1.00;;;;;;5058105;28;20964;-59
2021/12/02 00:41:26;;;;;;;0.73;0.67;;;7.50;1.00;;;;;;5066233;28;20441;-58
2021/12/02 00:43:54;;;;;;;0.70;0.50;;;7.50;1.00;;;;;;5064255;28;20445;-58
2021/12/02 00:46:22;;;;;;;1.60;0.67;;;7.60;1.00;;;;;;5048287;28;20526;-59
2021/12/02 00:48:49;;;;;;;0.70;0.70;;;7.70;1.00;;;;;;5055635;28;20965;-59
2021/12/02 00:51:16;;;;;;;1.83;0.60;;;7.60;1.00;;;;;;5051607;28;20774;-60
2021/12/02 00:53:46;;;;;;;1.83;0.80;;;7.60;1.00;;;;;;5048618;28;20450;-58
2021/12/02 00:56:14;;;;;;;1.37;0.97;;;7.50;1.00;;;;;;5050449;28;20443;-57
2021/12/02 00:58:40;;;;;;;1.00;0.80;;;7.50;1.00;;;;;;5057004;28;20471;-58
2021/12/02 01:01:08;;;;;;;1.03;0.60;;;7.40;1.00;;;;;;5057339;28;20534;-58
2021/12/02 01:03:36;;;;;;;2.80;1.00;;;7.40;1.00;;;;;;5065991;28;20427;-61
2021/12/02 01:06:04;;;;;;;0.67;0.67;;;7.40;1.00;;;;;;5061067;28;20433;-58
2021/12/02 01:08:31;;;;;;;1.63;0.60;;;7.40;1.00;;;;;;5059253;28;20535;-59
2021/12/02 01:10:57;;;;;;;0.73;0.70;;;7.40;1.00;;;;;;5054234;28;20446;-59
2021/12/02 01:13:23;;;;;;;1.00;0.57;;;7.40;1.00;;;;;;5057834;28;20982;-58
2021/12/02 01:15:49;;;;;;;1.10;0.57;;;7.40;1.00;;;;;;5054085;28;20200;-58
2021/12/02 01:18:15;;;;;;;1.07;0.90;;;;;;;;;;5050148;28;20550;-58
2021/12/02 01:20:44;;;;;;;2.67;0.93;;;7.30;1.00;;;;;;5056649;28;20189;-58
2021/12/02 01:23:11;;;;;;;1.77;0.93;;;7.30;1.00;;;;;;5052525;28;20460;-60
2021/12/02 01:25:37;;;;;;;1.37;0.77;;;7.40;1.00;;;;;;5055635;28;20484;-59
2021/12/02 01:28:04;;;;;;;0.87;0.70;;;7.30;1.00;;;;;;5065199;28;20474;-59
2021/12/02 01:30:31;;;;;;;1.00;1.00;;;7.30;1.00;;;;;;5056387;28;20941;-58
2021/12/02 01:33:07;;;;;;;1.70;0.90;;;7.30;1.00;;;;;;5060574;28;20984;-58
2021/12/02 01:35:34;;;;;;;0.80;0.70;;;7.30;1.00;;;;;;5061361;28;20503;-57
2021/12/02 01:38:00;;;;;;;2.10;0.93;;;7.20;1.00;;;;;;5060498;28;20450;-57
2021/12/02 01:40:27;;;;;;;4.70;0.93;;;7.30;1.00;;;;;;5050091;28;20455;-58
2021/12/02 01:42:56;;;;;;;2.17;0.67;;;7.30;1.00;;;;;;5051802;28;20418;-58
2021/12/02 01:45:27;;;;;;;1.60;0.83;;;7.30;1.00;;;;;;5050664;28;20546;-58
2021/12/02 01:47:54;;;;;;;3.10;1.33;;;7.30;1.00;;;;;;5049417;28;20991;-59
2021/12/02 01:50:22;;;;;;;0.80;0.80;;;7.20;1.00;;;;;;5048170;28;20447;-59
2021/12/02 01:53:13;;;;;;;1.90;0.60;;;7.20;1.00;;;;;;5063503;28;20439;-58
2021/12/02 01:55:43;;;;;;;3.40;0.90;;;7.20;1.00;;;;;;5053227;28;20446;-58
2021/12/02 01:58:16;;;;;;;0.67;0.67;;;7.20;1.00;;;;;;5055310;28;20425;-57
2021/12/02 02:00:44;;;;;;;1.30;0.70;;;7.10;1.00;;;;;;5068543;28;20416;-58
2021/12/02 02:03:15;;;;;;;1.77;0.60;;;7.10;1.00;;;;;;5054046;28;20491;-58
2021/12/02 02:05:41;;;;;;;1.03;0.80;;;7.20;1.00;;;;;;5060324;28;20450;-57
2021/12/02 02:08:21;;;;;;;3.10;1.10;;;7.10;1.00;;;;;;5050431;28;20442;-58
2021/12/02 02:10:46;;;;;;;1.80;0.77;;;6.90;1.00;;;;;;5065562;28;20535;-57
2021/12/02 02:13:14;;;;;;;2.27;0.90;;;7.10;1.00;;;;;;5049103;28;20576;-58
2021/12/02 02:15:44;;;;;;;2.87;0.80;;;7.10;1.00;;;;;;5052986;28;20633;-58
2021/12/02 02:18:20;;;;;;;3.43;0.83;;;7.00;1.00;;;;;;5052914;28;20845;-57
2021/12/02 02:21:09;;;;;;;3.67;1.10;;;6.90;1.00;;;;;;5053096;28;20446;-57
2021/12/02 02:23:43;;;;;;;4.90;1.13;;;7.00;1.00;;;;;;5062135;28;20444;-58
2021/12/02 02:26:09;;;;;;;2.27;0.93;;;7.00;1.00;;;;;;5061200;28;20603;-58
2021/12/02 02:28:35;;;;;;;0.93;0.60;;;7.00;1.00;;;;;;5054407;28;20952;-59
2021/12/02 02:31:01;;;;;;;2.50;1.00;;;7.00;1.00;;;;;;5052774;28;20445;-58
2021/12/02 02:33:35;;;;;;;5.73;2.17;;;7.00;1.00;;;;;;5049741;28;20457;-59
2021/12/02 02:36:00;;;;;;;1.50;1.10;;;6.80;1.00;;;;;;5051303;28;20777;-58
2021/12/02 02:38:26;;;;;;;1.03;0.70;;;6.80;1.00;;;;;;5038432;28;20471;-57
2021/12/02 02:40:54;;;;;;;2.33;1.00;;;6.90;1.00;;;;;;5052238;28;20614;-57
2021/12/02 02:43:23;;;;;;;1.23;0.90;;;6.80;1.00;;;;;;5054307;28;20195;-58
2021/12/02 02:45:49;;;;;;;1.17;0.90;;;6.80;1.00;;;;;;5050321;28;21006;-58
2021/12/02 02:48:15;;;;;;;4.70;1.37;;;6.90;1.00;;;;;;5060810;28;20509;-58
2021/12/02 02:50:41;;;;;;;1.20;1.10;;;6.80;1.00;;;;;;5054473;28;20425;-59
2021/12/02 02:53:17;;;;;;;0.80;0.80;;;6.80;1.00;;;;;;5051651;28;20185;-58
2021/12/02 02:55:51;;;;;;;0.83;0.67;;;6.80;1.00;;;;;;5053585;28;20193;-58
2021/12/02 02:58:31;;;;;;;5.37;1.13;;;6.80;1.00;;;;;;5052194;28;20565;-57
2021/12/02 03:01:07;;;;;;;2.83;0.90;;;6.90;1.00;;;;;;5065176;28;20500;-57
2021/12/02 03:06:25;;;;;;;3.00;1.33;;;6.90;1.00;;;;;;5056233;28;20480;-57
2021/12/02 03:08:58;;;;;;;0.90;0.70;;;6.80;1.00;;;;;;5059030;28;20796;-57
2021/12/02 03:11:28;;;;;;;1.63;0.70;;;6.90;1.00;;;;;;5067456;28;20797;-58
2021/12/02 03:13:55;;;;;;;1.50;0.73;;;6.90;1.00;;;;;;5054578;28;20966;-58
2021/12/02 03:19:06;;;;;;;1.47;0.77;;;6.90;1.00;;;;;;5058294;28;20588;-57
2021/12/02 03:21:32;;;;;;;3.07;1.17;;;6.90;1.00;;;;;;5058225;28;20504;-58
2021/12/02 03:23:59;;;;;;;2.43;0.60;;;6.90;1.00;;;;;;5060877;28;20638;-59
2021/12/02 03:26:26;;;;;;;1.90;1.27;;;7.00;1.00;;;;;;5052581;28;20678;-59
2021/12/02 03:28:53;;;;;;;3.10;1.17;;;7.00;1.00;;;;;;5055136;28;20446;-57
2021/12/02 03:31:20;;;;;;;1.37;1.07;;;7.00;1.00;;;;;;5052900;28;20563;-57
2021/12/02 03:33:46;;;;;;;1.10;0.60;;;7.10;1.00;;;;;;5062010;28;20518;-58
2021/12/02 03:36:14;;;;;;;4.13;1.00;;;7.20;1.00;;;;;;5065605;28;20529;-57
2021/12/02 03:38:40;;;;;;;1.17;0.83;;;7.30;1.00;;;;;;5056688;28;20816;-57
2021/12/02 03:41:06;;;;;;;3.63;1.30;;;7.30;1.00;;;;;;5057289;28;20439;-58
2021/12/02 03:43:36;;;;;;;5.90;1.47;;;7.20;1.00;;;;;;5064202;28;20184;-58
2021/12/02 03:46:01;;;;;;;3.23;1.10;;;7.20;1.00;;;;;;5054093;28;20449;-58
2021/12/02 03:48:27;;;;;;;1.43;1.10;;;7.20;1.00;;;;;;5052964;28;20454;-57
2021/12/02 03:50:52;;;;;;;2.03;0.97;;;7.10;1.00;;;;;;5059890;28;20649;-57
2021/12/02 03:53:18;;;;;;;1.40;0.70;;;7.00;1.00;;;;;;5063295;28;20188;-57
2021/12/02 03:55:43;;;;;;;1.27;0.90;;;6.90;1.00;;;;;;5057190;28;20697;-58
2021/12/02 03:58:09;;;;;;;1.07;0.97;;;6.80;1.00;;;;;;5050012;28;20227;-58
2021/12/02 04:00:35;;;;;;;2.10;1.00;;;6.90;1.00;;;;;;5045274;28;20324;-58
2021/12/02 04:03:00;;;;;;;2.00;0.70;;;6.90;1.00;;;;;;5055877;28;20650;-59
2021/12/02 04:05:26;;;;;;;2.07;1.40;;;6.80;1.00;;;;;;5050834;28;20191;-59
2021/12/02 04:07:52;;;;;;;3.00;1.53;;;6.70;1.00;;;;;;5052485;28;20191;-58
2021/12/02 04:10:19;;;;;;;2.30;1.17;;;;;;;;;;5051542;28;20677;-57
2021/12/02 04:15:14;;;;;;;2.13;0.80;;;6.80;1.00;;;;;;5051314;28;20600;-58
2021/12/02 04:17:43;;;;;;;2.60;1.00;;;6.80;1.00;;;;;;5050124;28;20200;-58
2021/12/02 04:20:13;;;;;;;3.87;1.20;;;6.70;1.00;;;;;;5050360;28;21064;-57
2021/12/02 04:22:39;;;;;;;3.33;1.20;;;6.70;1.00;;;;;;5056328;28;20438;-58
2021/12/02 04:25:06;;;;;;;2.40;0.80;;;6.70;1.00;;;;;;5060329;28;21017;-57
2021/12/02 04:27:31;;;;;;;0.80;0.80;;;6.60;1.00;;;;;;5058093;28;20188;-58
2021/12/02 04:29:57;;;;;;;3.70;1.77;;;6.70;1.00;;;;;;5053941;28;20504;-60
2021/12/02 04:32:22;;;;;;;4.37;1.50;;;6.80;1.00;;;;;;5064560;28;20232;-57
2021/12/02 04:34:48;;;;;;;1.93;1.03;;;6.90;1.00;;;;;;5062175;28;20187;-57
2021/12/02 04:37:13;;;;;;;3.40;1.33;;;6.90;1.00;;;;;;5049435;28;20199;-57
2021/12/02 04:39:39;;;;;;;2.43;0.93;;;6.80;1.00;;;;;;5049517;28;20203;-57
2021/12/02 04:42:05;;;;;;;1.00;0.90;;;6.70;1.00;;;;;;5055941;28;20182;-57
2021/12/02 04:44:30;;;;;;;5.80;1.67;;;6.70;1.00;;;;;;5062692;28;21526;-57
2021/12/02 04:46:56;;;;;;;2.43;1.23;;;6.70;1.00;;;;;;5066500;28;20172;-57
2021/12/02 04:49:21;;;;;;;2.07;1.03;;;6.60;1.00;;;;;;5057913;28;20184;-58
2021/12/02 04:51:47;;;;;;;1.93;1.20;;;6.60;1.00;;;;;;5054134;28;20507;-57
2021/12/02 04:54:12;;;;;;;1.60;0.70;;;6.60;1.00;;;;;;5055313;28;20177;-59
2021/12/02 04:56:38;;;;;;;2.50;0.80;;;;;;;;;;5068607;28;20266;-58
2021/12/02 04:59:04;;;;;;;5.23;1.03;;;6.60;1.00;;;;;;5058555;28;20212;-57
2021/12/02 05:01:30;;;;;;;5.57;1.40;;;6.60;1.00;;;;;;5055828;28;20435;-57
2021/12/02 05:03:55;;;;;;;2.93;0.97;;;6.60;1.00;;;;;;5061555;28;20558;-57
2021/12/02 05:06:21;;;;;;;2.17;1.20;;;6.60;1.00;;;;;;5062552;28;20184;-58
2021/12/02 05:08:47;;;;;;;2.30;0.90;;;;;;;;;;5055780;28;20565;-58
2021/12/02 05:11:13;;;;;;;1.90;1.10;;;6.60;1.00;;;;;;5057967;28;20589;-58
2021/12/02 05:13:38;;;;;;;1.40;1.20;;;6.60;1.00;;;;;;5054032;28;20438;-58
2021/12/02 05:16:04;;;;;;;2.67;1.10;;;;;;;;;;5051048;28;20268;-58
2021/12/02 05:18:30;;;;;;;2.77;1.20;;;6.50;1.00;;;;;;5050986;28;20245;-59
2021/12/02 05:20:57;;;;;;;2.30;1.70;;;6.50;1.00;;;;;;5049028;28;20427;-58
2021/12/02 05:23:22;;;;;;;2.63;1.70;;;6.50;1.00;;;;;;5050827;28;20630;-59
2021/12/02 05:25:48;;;;;;;0.93;0.83;;;;;;;;;;5050926;28;20536;-58
2021/12/02 05:28:20;;;;;;;1.10;0.97;;;6.70;1.00;;;;;;5050927;28;20189;-58
2021/12/02 05:30:47;;;;;;;1.33;0.90;;;6.70;1.00;;;;;;5051876;28;20435;-58
2021/12/02 05:33:13;;;;;;;2.40;1.20;;;6.60;1.00;;;;;;5050116;28;20474;-58
2021/12/02 05:35:38;;;;;;;3.23;1.23;;;6.70;1.00;;;;;;5050378;28;20470;-59
2021/12/02 05:38:04;;;;;;;2.43;0.90;;;6.60;1.00;;;;;;5056928;28;20188;-58
2021/12/02 05:40:30;;;;;;;4.00;1.10;;;6.60;1.00;;;;;;5055330;28;20181;-57
2021/12/02 05:42:56;;;;;;;3.03;1.40;;;6.40;1.00;;;;;;5049292;28;20627;-57
2021/12/02 05:45:22;;;;;;;2.63;1.30;;;6.40;1.00;;;;;;5050358;28;20453;-58
2021/12/02 05:47:47;;;;;;;7.40;1.27;;;6.40;1.00;;;;;;5050180;28;20181;-59
2021/12/02 05:50:13;;;;;;;2.33;0.87;;;6.50;1.00;;;;;;5053851;28;20191;-56
2021/12/02 05:52:39;;;;;;;6.30;1.77;;;6.30;1.00;;;;;;5053588;28;20192;-58
2021/12/02 05:55:04;;;;;;;3.23;1.10;;;6.40;1.00;;;;;;5053539;28;20322;-58
2021/12/02 05:57:31;;;;;;;4.80;1.10;;;6.40;1.00;;;;;;5053283;28;20194;-58
2021/12/02 05:59:57;;;;;;;2.30;0.77;;;6.30;1.00;;;;;;5049698;28;20979;-57
2021/12/02 06:02:23;;;;;;;1.83;1.10;;;6.30;1.00;;;;;;5055499;28;20578;-58
2021/12/02 06:04:51;;;;;;;4.73;1.13;;;6.20;1.00;;;;;;5049156;28;21126;-58
2021/12/02 06:07:18;;;;;;;1.93;0.90;;;6.20;1.00;;;;;;5047739;28;20173;-57
2021/12/02 06:09:44;;;;;;;3.10;1.20;;;6.10;1.00;;;;;;5064210;28;20441;-57
2021/12/02 06:12:10;;;;;;;1.47;1.20;;;6.10;1.00;;;;;;5051337;28;20959;-58
2021/12/02 06:14:36;;;;;;;2.50;0.87;;;6.00;1.00;;;;;;5048560;28;20447;-58
2021/12/02 06:17:01;;;;;;;1.40;0.90;;;5.90;1.00;;;;;;5052012;28;20525;-59
2021/12/02 06:19:27;;;;;;;3.47;1.80;;;6.00;1.00;;;;;;5054538;28;20719;-57
2021/12/02 06:21:53;;;;;;;5.07;1.33;;;6.00;1.00;;;;;;5052481;28;20188;-57
2021/12/02 06:24:20;;;;;;;2.30;1.10;;;5.90;1.00;;;;;;5052858;28;20266;-57
2021/12/02 06:26:45;;;;;;;3.40;1.30;;;6.00;1.00;;;;;;5052398;28;20250;-58
2021/12/02 06:29:11;;;;;;;4.30;1.97;;;6.00;1.00;;;;;;5052578;28;20441;-58
2021/12/02 06:31:36;;;;;;;1.80;0.90;;;5.90;1.00;;;;;;5054124;28;20194;-57
2021/12/02 06:34:02;;;;;;;2.40;1.10;;;5.90;1.00;;;;;;5053516;28;20195;-58
2021/12/02 06:36:28;;;;;;;4.40;1.27;;;6.00;1.00;;;;;;5053530;28;20192;-58
2021/12/02 06:38:54;;;;;;;1.70;0.77;;;;;;;;;;5053476;28;20208;-59
2021/12/02 06:41:19;;;;;;;2.00;1.40;;;6.10;1.00;;;;;;5053562;28;20184;-57
2021/12/02 06:43:45;;;;;;;4.90;1.47;;;6.00;1.00;;;;;;5055323;28;20524;-57
2021/12/02 06:46:11;;;;;;;6.47;1.40;;;;;;;;;;5053542;28;20241;-58
2021/12/02 06:48:37;;;;;;;3.30;1.10;;;6.10;1.00;;;;;;5059335;28;20460;-58
2021/12/02 06:51:02;;;;;;;3.90;1.10;;;6.00;1.00;;;;;;5057704;28;20499;-58
2021/12/02 06:53:28;;;;;;;5.60;1.20;;;6.00;1.00;;;;;;5053751;28;20550;-57
2021/12/02 06:55:54;;;;;;;1.70;1.03;;;6.00;1.00;;;;;;5053695;28;20186;-57
2021/12/02 06:58:20;;;;;;;1.63;1.07;;;;;;;;;;5052626;28;20267;-59
2021/12/02 07:00:45;;;;;;;1.87;0.97;;;6.00;1.00;;;;;;5053580;28;20192;-57
2021/12/02 07:03:11;;;;;;;3.70;1.37;;;6.00;1.00;;;;;;5052976;28;20449;-59
2021/12/02 07:05:36;;;;;;;2.90;1.40;;;6.00;1.00;;;;;;5053210;28;20193;-59
2021/12/02 07:08:02;;;;;;;1.77;1.30;;;6.00;1.00;;;;;;5053019;28;20195;-59
2021/12/02 07:10:31;;;;;;;7.23;1.30;;;6.00;1.00;;;;;;5052692;28;20184;-56
2021/12/02 07:12:57;;;;;;;3.23;1.47;;;6.10;1.00;;;;;;5053409;28;20538;-59
2021/12/02 07:15:41;;;;;;;3.83;1.70;;;6.00;1.00;;;;;;5052851;28;20931;-58
2021/12/02 07:18:12;;;;;;;3.57;1.63;;;6.00;1.00;;;;;;5056113;28;20411;-57
2021/12/02 07:20:39;;;;;;;4.53;0.97;;;6.00;1.00;;;;;;5071832;28;20445;-57
2021/12/02 07:23:05;;;;;;;4.97;1.43;;;5.90;1.00;;;;;;5056731;28;20966;-57
2021/12/02 07:25:32;;;;;;;3.40;1.03;;;6.00;1.00;;;;;;5052402;28;20501;-58
2021/12/02 07:27:57;;;;;;;1.90;1.00;;;6.00;1.00;;;;;;5052263;28;20212;-59
2021/12/02 07:30:23;;;;;;;2.63;0.90;;;;;;;;;;5051736;28;20960;-59
2021/12/02 07:32:55;;;;;;;3.60;1.30;;;6.00;1.00;;;;;;5052468;28;20199;-58
2021/12/02 07:35:21;;;;;;;3.60;1.30;;;6.00;1.00;;;;;;5052678;28;20482;-58
2021/12/02 07:37:50;;;;;;;6.43;1.83;;;6.00;1.00;;;;;;5052718;28;20819;-58
2021/12/02 07:40:17;;;;;;;6.73;1.27;;;6.00;1.00;;;;;;5051727;28;20477;-58
2021/12/02 07:42:49;;;;;;;1.33;0.93;;;6.00;1.00;;;;;;5052204;28;20460;-58
2021/12/02 07:45:16;;;;;;;1.63;1.00;;;6.00;1.00;;;;;;5063369;28;20464;-57
2021/12/02 07:47:42;;;;;;;4.53;1.20;;;6.10;1.00;;;;;;5052739;28;20446;-58
2021/12/02 07:50:14;;;;;;;2.43;1.67;;;6.10;1.00;;;;;;5050887;28;20442;-57
2021/12/02 07:52:45;;;;;;;3.97;1.30;;;6.10;1.00;;;;;;5052332;28;20418;-58
2021/12/02 07:55:13;;;;;;;2.73;1.00;;;6.00;1.00;;;;;;5061858;28;20450;-58
2021/12/02 07:57:41;;;;;;;5.23;1.67;;;6.00;1.00;;;;;;5054283;28;20454;-58
2021/12/02 08:00:08;;;;;;;5.00;1.20;;;6.10;1.00;;;;;;5051927;28;20447;-56
2021/12/02 08:02:35;;;;;;;3.87;1.67;;;6.10;1.00;;;;;;5051994;28;20948;-57
2021/12/02 08:05:01;;;;;;;3.77;1.23;;;;;;;;;;5051867;28;20442;-57
2021/12/02 08:07:27;;;;;;;3.87;1.43;;;6.10;1.00;;;;;;5052299;28;20427;-59
2021/12/02 08:09:52;;;;;;;5.00;1.37;;;6.10;1.00;;;;;;5052022;28;20492;-57
2021/12/02 08:12:18;;;;;;;5.50;1.20;;;6.10;1.00;;;;;;5051338;28;20197;-60
2021/12/02 08:14:43;;;;;;;7.33;1.57;;;6.20;1.00;;;;;;5059736;28;20196;-58
2021/12/02 08:17:09;;;;;;;4.40;3.40;;;6.20;1.00;;;;;;5052336;28;20179;-57
2021/12/02 08:19:36;;;;;;;3.63;1.40;;;6.30;1.00;;;;;;5052137;28;20247;-56
2021/12/02 08:22:02;;;;;;;3.87;1.20;;;6.30;1.00;;;;;;5053957;28;20567;-58
2021/12/02 08:24:28;;;;;;;2.00;0.80;;;6.30;1.00;;;;;;5052205;28;20435;-57
2021/12/02 08:26:54;;;;;;;4.17;1.30;;;6.20;1.00;;;;;;5051772;28;21282;-58
2021/12/02 08:29:21;;;;;;;2.43;0.90;;;6.40;1.00;;;;;;5065530;28;20231;-59
2021/12/02 08:31:47;;;;;;;1.90;1.03;;;6.50;1.00;;;;;;5057804;28;20804;-57
2021/12/02 08:34:12;;;;;;;2.10;0.87;;;6.50;1.00;;;;;;5051713;28;20439;-57
2021/12/02 08:36:44;;;;;;;4.13;1.10;;;6.40;1.00;;;;;;5051738;28;20707;-58
2021/12/02 08:39:16;;;;;;;5.20;1.17;;;6.50;1.00;;;;;;5051873;28;20204;-58
2021/12/02 08:41:45;;;;;;;7.50;1.53;;;6.40;1.00;;;;;;5051805;28;20580;-58
2021/12/02 08:44:11;;;;;;;3.73;1.40;;;6.50;1.00;;;;;;5052041;28;20447;-58
2021/12/02 08:46:36;;;;;;;2.83;1.20;;;;;;;;;;5052220;28;20443;-56
2021/12/02 08:49:03;;;;;;;3.60;1.70;;;6.50;1.00;;;;;;5053312;28;20185;-57
2021/12/02 08:51:29;;;;;;;8.17;1.33;;;6.50;1.00;;;;;;5051939;28;20439;-58
2021/12/02 08:53:54;;;;;;;3.43;1.53;;;6.50;1.00;;;;;;5050246;28;20453;-57
2021/12/02 08:56:20;;;;;;;4.83;1.23;;;6.40;1.00;;;;;;5051815;28;20538;-57
2021/12/02 08:58:45;;;;;;;2.73;1.20;;;6.40;1.00;;;;;;5051534;28;20243;-58
2021/12/02 09:01:11;;;;;;;6.10;1.47;;;6.40;1.00;;;;;;5060269;28;20172;-59
2021/12/02 09:03:38;;;;;;;8.67;2.20;;;6.50;1.00;;;;;;5069105;28;20250;-58
2021/12/02 09:06:08;;;;;;;3.50;1.20;;;6.60;1.00;;;;;;5069754;28;20445;-57
2021/12/02 09:08:34;;;;;;;4.83;1.37;;;6.60;1.00;;;;;;5061688;28;20471;-57
2021/12/02 09:11:00;;;;;;;3.43;1.50;;;6.50;1.00;;;;;;5062742;28;20425;-58
2021/12/02 09:13:26;;;;;;;3.63;1.50;;;;;;;;;;5064045;28;20444;-57
2021/12/02 09:15:52;;;;;;;2.80;1.17;;;6.50;1.00;;;;;;5068351;28;20642;-58
2021/12/02 09:18:17;;;;;;;4.00;1.00;;;6.60;1.00;;;;;;5050512;28;20502;-57
2021/12/02 09:20:43;;;;;;;3.03;0.97;;;6.60;1.00;;;;;;5051151;28;20177;-57
2021/12/02 09:23:08;;;;;;;1.97;0.77;;;6.60;1.00;;;;;;5050673;28;20183;-58
2021/12/02 09:25:34;;;;;;;3.30;0.97;;;;;;;;;;5070460;28;20319;-58
2021/12/02 09:28:01;;;;;;;3.10;1.10;;;6.80;1.00;;;;;;5070623;28;20565;-60
2021/12/02 09:30:27;;;;;;;2.93;1.37;;;6.90;1.00;;;;;;5069182;28;20835;-58
2021/12/02 09:32:54;;;;;;;4.10;1.37;;;6.90;1.00;;;;;;5052187;28;20546;-58
2021/12/02 09:35:20;;;;;;;7.70;1.60;;;7.10;1.00;;;;;;5050514;28;20869;-57
2021/12/02 09:37:46;;;;;;;3.80;1.33;;;;;;;;;;5054660;28;20197;-57
2021/12/02 09:40:13;;;;;;;3.80;1.90;;;7.20;1.00;;;;;;5065104;28;20286;-57
2021/12/02 09:42:40;;;;;;;4.07;1.30;;;7.30;1.00;;;;;;5070537;28;20434;-56
2021/12/02 09:45:07;;;;;;;6.30;1.40;;;7.20;1.00;;;;;;5070778;28;20442;-59
2021/12/02 09:47:37;;;;;;;4.33;1.90;;;7.20;1.00;;;;;;5070336;28;20613;-57
2021/12/02 09:50:11;;;;;;;6.13;2.17;;;7.20;1.00;;;;;;5054833;28;20538;-56
2021/12/02 09:52:39;;;;;;;5.50;1.60;;;;;;;;;;5057937;28;21109;-56
2021/12/02 09:57:57;;;;;;;5.25;1.40;;;7.20;1.00;;;;;;5056787;28;20430;-58
2021/12/02 10:00:38;;;;;;;8.93;1.67;;;7.10;1.00;;;;;;5057240;28;20204;-58
2021/12/02 10:03:15;;;;;;;2.60;1.73;;;7.00;1.00;;;;;;5063427;28;20470;-57
2021/12/02 10:05:49;;;;;;;3.10;1.50;;;7.00;1.00;;;;;;5050194;28;20435;-55
2021/12/02 10:08:29;;;;;;;2.23;0.83;;;6.90;1.00;;;;;;5050557;28;20430;-59
2021/12/02 10:11:07;;;;;;;5.03;2.10;;;7.00;1.00;;;;;;5050003;28;20439;-58
2021/12/02 10:13:47;;;;;;;3.83;1.00;;;6.90;1.00;;;;;;5051178;28;20447;-57
2021/12/02 10:16:25;;;;;;;3.23;1.00;;;7.00;1.00;;;;;;5050572;28;20481;-57
2021/12/02 10:21:38;;;;;;;4.80;1.40;;;7.20;1.00;;;;;;5049920;28;20438;-57
2021/12/02 10:24:13;;;;;;;1.63;1.10;;;7.20;1.00;;;;;;5064121;28;20437;-56
2021/12/02 10:26:44;;;;;;;4.33;1.37;;;7.20;1.00;;;;;;5069650;28;21060;-56
2021/12/02 10:29:31;;;;;;;5.70;1.37;;;7.20;1.00;;;;;;5051039;28;20445;-57
2021/12/02 10:32:21;;;;;;;2.97;1.27;;;7.00;1.00;;;;;;5048187;28;20434;-57
2021/12/02 10:34:58;;;;;;;4.23;1.70;;;7.00;1.00;;;;;;5061041;28;20487;-57
2021/12/02 10:37:31;;;;;;;6.27;1.70;;;7.00;1.00;;;;;;5067042;28;20970;-55
2021/12/02 10:39:59;;;;;;;5.87;1.60;;;7.20;1.00;;;;;;5049806;28;21075;-57
2021/12/02 10:42:26;;;;;;;9.00;2.97;;;7.50;1.00;;;;;;5048545;28;20836;-57
2021/12/02 10:44:51;;;;;;;5.43;1.97;;;7.50;1.00;;;;;;5067970;28;20513;-57
2021/12/02 10:47:19;;;;;;;4.90;0.83;;;7.30;1.00;;;;;;5050607;28;20871;-55
2021/12/02 10:49:57;;;;;;;2.00;1.20;;;7.10;1.00;;;;;;5057353;28;20194;-56
2021/12/02 10:52:30;;;;;;;3.00;1.47;;;6.80;1.00;;;;;;5062218;28;20518;-56
2021/12/02 10:55:09;;;;;;;2.67;1.27;;;6.70;1.00;;;;;;5059641;28;20445;-56
2021/12/02 10:57:39;;;;;;;3.10;1.23;;;6.60;1.00;;;;;;5069642;28;20806;-55
2021/12/02 11:00:12;;;;;;;5.07;1.40;;;6.50;1.00;;;;;;5069346;28;20468;-56
2021/12/02 11:02:45;;;;;;;5.07;1.40;;;6.80;1.00;;;;;;5047847;28;20588;-57
2021/12/02 11:05:30;;;;;;;6.13;1.20;;;6.80;1.00;;;;;;5047564;28;20748;-56
2021/12/02 11:07:57;;;;;;;2.40;1.03;;;7.20;1.00;;;;;;5051419;28;20471;-57
2021/12/02 11:10:24;;;;;;;4.80;1.50;;;7.50;1.00;;;;;;5063010;28;20446;-56
2021/12/02 11:12:52;;;;;;;4.37;0.97;;;7.60;1.00;;;;;;5060011;28;20520;-58
2021/12/02 11:15:25;;;;;;;5.90;1.80;;;7.40;1.00;;;;;;5054153;28;20887;-58
2021/12/02 11:18:03;;;;;;;4.00;1.47;;;7.30;1.00;;;;;;5050306;28;20476;-57
2021/12/02 11:20:32;;;;;;;6.40;1.23;;;7.20;1.00;;;;;;5051381;28;20466;-57
2021/12/02 11:23:06;;;;;;;5.50;1.40;;;7.30;1.00;;;;;;5052362;28;20435;-57
2021/12/02 11:25:34;;;;;;;2.10;0.90;;;7.30;1.00;;;;;;5056835;28;20458;-57
2021/12/02 11:28:05;;;;;;;2.67;1.80;;;7.10;1.00;;;;;;5052774;28;20446;-56
2021/12/02 11:30:31;;;;;;;2.30;1.20;;;6.90;1.00;;;;;;5050914;28;20451;-57
2021/12/02 11:33:04;;;;;;;2.30;0.77;;;7.00;1.00;;;;;;5052714;28;20499;-57
2021/12/02 11:35:39;;;;;;;6.13;1.70;;;7.00;1.00;;;;;;5056674;28;20941;-59
2021/12/02 11:38:19;;;;;;;3.40;1.70;;;7.10;1.00;;;;;;5051299;28;20810;-56
2021/12/02 11:40:47;;;;;;;2.90;1.03;;;7.00;1.00;;;;;;5051176;28;20455;-58
2021/12/02 11:43:17;;;;;;;3.70;1.13;;;7.00;1.00;;;;;;5052505;28;21266;-57
2021/12/02 11:45:48;;;;;;;12.53;1.80;;;7.00;1.00;;;;;;5051586;28;20435;-58
2021/12/02 11:48:19;;;;;;;3.33;1.10;;;7.10;1.00;;;;;;5051251;28;20933;-57
2021/12/02 11:50:46;;;;;;;3.40;1.10;;;7.60;1.00;;;;;;5067425;28;20513;-56
2021/12/02 11:53:14;;;;;;;7.37;1.37;;;7.70;1.00;;;;;;5055079;28;20431;-57
2021/12/02 11:55:42;;;;;;;3.23;0.80;;;7.80;1.00;;;;;;5066976;28;20522;-56
2021/12/02 11:58:07;;;;;;;3.00;1.27;;;7.70;1.00;;;;;;5054393;28;20426;-56
2021/12/02 12:00:34;;;;;;;3.00;1.07;;;7.80;1.00;;;;;;5071799;28;20512;-58
2021/12/02 12:03:02;;;;;;;5.63;1.10;;;8.10;1.00;;;;;;5058101;28;20260;-56
2021/12/02 12:06:01;;;;;;;3.70;1.50;;;8.20;1.00;;;;;;5054267;28;20584;-58
2021/12/02 12:08:33;;;;;;;4.60;1.47;;;8.30;1.00;;;;;;5063482;28;20449;-57
2021/12/02 12:11:27;;;;;;;4.40;1.50;;;8.00;1.00;;;;;;5066320;28;20466;-58
2021/12/02 12:14:09;;;;;;;3.07;1.37;;;7.90;1.00;;;;;;5053830;28;20438;-61
2021/12/02 12:16:42;;;;;;;1.60;1.20;;;7.70;1.00;;;;;;5050995;28;20479;-56
2021/12/02 12:19:22;;;;;;;2.30;1.10;;;7.80;1.00;;;;;;5048993;28;20459;-56
2021/12/02 12:21:56;;;;;;;4.53;1.30;;;7.70;1.00;;;;;;5051903;28;20439;-55
2021/12/02 12:24:52;;;;;;;2.87;0.80;;;7.80;1.00;;;;;;5051533;28;20525;-56
2021/12/02 12:27:27;;;;;;;4.30;1.30;;;7.90;1.00;;;;;;5042448;28;20824;-57
2021/12/02 12:30:12;;;;;;;3.20;0.80;;;7.90;1.00;;;;;;5051291;28;20413;-57
2021/12/02 12:38:00;;;;;;;4.33;1.20;;;;;;;;;;5052007;28;20443;-56
2021/12/02 12:40:38;;;;;;;2.57;1.10;;;8.00;1.00;;;;;;5051081;28;20470;-56
2021/12/02 12:43:03;;;;;;;5.97;1.57;;;8.00;1.00;;;;;;5054465;28;20927;-56
2021/12/02 12:45:36;;;;;;;2.73;1.40;;;7.80;1.00;;;;;;5055808;28;20441;-55
2021/12/02 12:48:04;;;;;;;1.50;0.83;;;7.70;1.00;;;;;;5051761;28;20330;-55
2021/12/02 12:50:41;;;;;;;3.50;0.93;;;7.60;1.00;;;;;;5050734;28;20533;-58
2021/12/02 12:53:07;;;;;;;7.50;2.20;;;4.40;1.00;;;;;;5052905;28;20454;-55
2021/12/02 12:55:37;;;;;;;2.90;1.60;;;7.40;1.00;;;;;;5052598;28;20451;-57
2021/12/02 12:58:10;;;;;;;2.90;1.80;;;7.50;1.00;;;;;;5051013;28;20505;-56
2021/12/02 13:00:41;;;;;;;5.00;1.40;;;7.50;1.00;;;;;;5050337;28;20625;-57
2021/12/02 13:03:13;;;;;;;5.67;1.80;;;7.60;1.00;;;;;;5061127;28;20487;-56
2021/12/02 13:05:49;;;;;;;2.93;1.30;;;7.70;1.00;;;;;;5050880;28;20434;-57
2021/12/02 13:08:23;;;;;;;4.80;2.00;;;7.50;1.00;;;;;;5050697;28;20434;-55
2021/12/02 13:11:02;;;;;;;3.33;1.40;;;7.50;1.00;;;;;;5052714;28;20442;-56
2021/12/02 13:13:33;;;;;;;2.27;1.20;;;7.40;1.00;;;;;;5050841;28;20430;-56
2021/12/02 13:16:19;;;;;;;5.70;1.97;;;10.30;1.00;;;;;;5051129;28;20446;-55
2021/12/02 13:18:52;;;;;;;2.40;1.60;;;7.30;1.00;;;;;;5050628;28;20536;-57
2021/12/02 13:21:34;;;;;;;3.20;2.00;;;7.40;1.00;;;;;;5049782;28;20523;-56
2021/12/02 13:24:18;;;;;;;3.43;1.70;;;7.30;1.00;;;;;;5050853;28;20435;-57
2021/12/02 13:27:06;;;;;;;4.63;1.57;;;7.40;1.00;;;;;;5050447;28;20463;-57
2021/12/02 13:29:34;;;;;;;2.07;1.60;;;7.40;1.00;;;;;;5050423;28;20435;-56
2021/12/02 13:32:11;;;;;;;7.30;2.07;;;7.40;1.00;;;;;;5058156;28;20434;-56
2021/12/02 13:34:37;;;;;;;2.30;1.37;;;7.40;1.00;;;;;;5052466;28;20482;-57
2021/12/02 13:37:08;;;;;;;3.37;1.60;;;7.40;1.00;;;;;;5050888;28;20475;-55
2021/12/02 13:39:39;;;;;;;5.63;1.97;;;7.30;1.00;;;;;;5057804;28;20548;-56
2021/12/02 13:42:11;;;;;;;5.17;1.90;;;7.10;1.00;;;;;;5061332;28;20454;-55
2021/12/02 13:44:48;;;;;;;5.50;2.13;;;7.00;1.00;;;;;;5050798;28;20442;-55